Airfield :
LOGIN :

Register | Disclaimer

   EN    FR    IT 

 










Legend :    VFR   Marginal VFR   IFR   Intensive IFR   Very Intensive IFR
Visi :
Ceiling :
>= 8 km
>= 3000ft
5 to 8 km
1000 to 3000 ft
1500m to 5 km
500 to 1000 ft
800 to 1500m
200 to 500 ft
< 800m
< 200 ft
Symbols :   Thunderstorms  Fog  Heavy snow  Heavy precipitations  Wind > 20 kt
SIGMETs :     Misc.  Thunderstorms  Icing  Turbulence  Mountain Waves  Volcanic Ashes






- Airport Elevation : 291 ft
- IATA code : ORY


LFPO - Paris-Orly

CURRENT METAR :
  • 160730Z 20004KT 170V230 9999 FEW026 BKN140 M00/M04 Q1028 NOSIG

EXPIRED METARs :
  • 160700Z VRB03KT CAVOK M01/M04 Q1028 NOSIG
  • 160630Z 23005KT CAVOK M01/M04 Q1029 NOSIG
  • 160600Z 21004KT CAVOK M00/M05 Q1029 NOSIG
  • 160530Z 19004KT 9999 FEW029 BKN180 M00/M05 Q1029 NOSIG

TAF TAF LFPO
Valid from the 16 at 06:00 until the 17 at 12:00 UTC


160500Z 1606/1712 VRB03KT CAVOK
BECMG 1609/1611 19010KT 2500 -SN BKN008
TEMPO 1611/1615 1200 SN BKN004
PROB30
TEMPO 1615/1616 -FZRA
BECMG 1616/1617 4000 -RA
TEMPO 1618/1620 2000 -RADZ BKN004
BECMG 1620/1622 27008KT 9999 NSW BKN030
PROB30
TEMPO 1710/1712 -SHRA SCT015TCU
ATIS : +33 1 49 75 65 80



MET'MAP, your aeronautical weather chart ! - Copyright ORBIFLY December 2007 - Disclaimer

ORBIFLY MET'MAP TEAM :

Programming & Development : Alexandra Zaïnal
Concept & original design : Baudouin d'Aumeries
Assistance for programming : Marc-Olivier Méhu
Technical & hardware support : Manuel Goepfert

Contact : metmap@orbifly.com




SOURCES & CREDITS :

   NOAA